createdAt,value
2018-09-09T00:01:51.761Z,4.67
2018-09-09T00:04:20.473Z,4.22
2018-09-09T00:06:49.141Z,4.55
2018-09-09T00:09:22.922Z,4.40
2018-09-09T00:11:51.629Z,4.22
2018-09-09T00:14:20.370Z,4.15
2018-09-09T00:16:49.045Z,4.40
2018-09-09T00:19:17.783Z,4.25
2018-09-09T00:21:46.489Z,4.65
2018-09-09T00:24:15.231Z,4.03
2018-09-09T00:26:43.944Z,4.58
2018-09-09T00:29:12.644Z,3.42
2018-09-09T00:31:41.398Z,3.35
2018-09-09T00:34:10.264Z,3.90
2018-09-09T00:36:38.955Z,4.42
2018-09-09T00:39:08.221Z,5.35
2018-09-09T00:41:36.996Z,4.85
2018-09-09T00:44:05.761Z,4.53
2018-09-09T00:46:34.699Z,4.70
2018-09-09T00:49:08.714Z,4.90
2018-09-09T00:52:40.170Z,4.83
2018-09-09T00:55:08.838Z,3.98
2018-09-09T00:57:37.572Z,3.55
2018-09-09T01:00:06.375Z,4.28
2018-09-09T01:02:35.142Z,3.80
2018-09-09T01:05:03.948Z,4.60
2018-09-09T01:07:32.635Z,3.77
2018-09-09T01:10:01.405Z,4.28
2018-09-09T01:12:30.133Z,4.00
2018-09-09T01:15:08.735Z,5.05
2018-09-09T01:17:41.695Z,4.28
2018-09-09T01:20:16.949Z,3.65
2018-09-09T01:22:50.087Z,4.08
2018-09-09T01:25:22.987Z,4.05
2018-09-09T01:28:01.202Z,3.92
2018-09-09T01:30:35.736Z,3.80
2018-09-09T01:33:10.252Z,3.20
2018-09-09T01:35:38.973Z,3.92
2018-09-09T01:38:07.733Z,3.47
2018-09-09T01:40:36.440Z,3.52
2018-09-09T01:43:05.260Z,3.72
2018-09-09T01:45:34.114Z,3.65
2018-09-09T01:48:02.896Z,3.58
2018-09-09T01:50:31.558Z,3.80
2018-09-09T01:53:00.637Z,4.33
2018-09-09T01:55:29.436Z,3.42
2018-09-09T01:57:58.239Z,3.75
2018-09-09T02:00:26.963Z,3.95
2018-09-09T02:02:55.650Z,4.08
2018-09-09T02:05:24.359Z,3.47
2018-09-09T02:07:53.019Z,3.00
2018-09-09T02:10:21.743Z,3.85
2018-09-09T02:12:50.465Z,3.25
2018-09-09T02:15:19.233Z,3.70
2018-09-09T02:17:47.991Z,4.10
2018-09-09T02:20:16.699Z,3.60
2018-09-09T02:22:45.449Z,3.83
2018-09-09T02:25:14.272Z,3.62
2018-09-09T02:27:43.034Z,3.60
2018-09-09T02:30:11.936Z,3.67
2018-09-09T02:32:40.661Z,3.80
2018-09-09T02:35:09.409Z,3.60
2018-09-09T02:37:38.089Z,4.17
2018-09-09T02:40:07.010Z,4.00
2018-09-09T02:42:35.746Z,4.55
2018-09-09T02:45:04.558Z,3.70
2018-09-09T02:47:33.546Z,4.53
2018-09-09T02:50:02.276Z,4.35
2018-09-09T02:52:31.017Z,3.98
2018-09-09T02:54:59.741Z,4.20
2018-09-09T02:57:28.468Z,3.50
2018-09-09T02:59:57.195Z,4.47
2018-09-09T03:02:25.967Z,4.40
2018-09-09T03:04:54.730Z,4.47
2018-09-09T03:07:23.450Z,4.08
2018-09-09T03:09:52.160Z,3.85
2018-09-09T03:12:20.861Z,3.87
2018-09-09T03:14:49.564Z,3.40
2018-09-09T03:17:18.326Z,4.05
2018-09-09T03:19:47.060Z,3.95
2018-09-09T03:22:15.796Z,3.90
2018-09-09T03:24:44.605Z,4.12
2018-09-09T03:27:13.351Z,3.52
2018-09-09T03:29:42.079Z,3.77
2018-09-09T03:32:10.954Z,3.70
2018-09-09T03:34:39.637Z,3.90
2018-09-09T03:37:08.349Z,3.08
2018-09-09T03:39:37.079Z,3.62
2018-09-09T03:42:05.818Z,4.28
2018-09-09T03:44:34.563Z,3.35
2018-09-09T03:47:03.368Z,3.37
2018-09-09T03:49:32.340Z,3.92
2018-09-09T03:52:01.100Z,4.53
2018-09-09T03:54:29.845Z,4.20
2018-09-09T03:56:58.533Z,3.45
2018-09-09T03:59:27.249Z,3.30
2018-09-09T04:01:55.987Z,4.03
2018-09-09T04:04:24.676Z,3.12
2018-09-09T04:06:53.461Z,4.30
2018-09-09T04:09:22.222Z,3.55
2018-09-09T04:11:50.931Z,3.80
2018-09-09T04:14:19.703Z,3.33
2018-09-09T04:16:48.437Z,3.77
2018-09-09T04:19:17.091Z,4.40
2018-09-09T04:21:50.030Z,3.70
2018-09-09T04:24:19.069Z,3.87
2018-09-09T04:26:47.873Z,4.03
2018-09-09T04:29:16.724Z,3.60
2018-09-09T04:31:45.491Z,4.05
2018-09-09T04:34:14.444Z,3.30
2018-09-09T04:36:43.543Z,3.40
2018-09-09T04:39:14.019Z,3.70
2018-09-09T04:41:43.120Z,3.60
2018-09-09T04:44:13.770Z,3.70
2018-09-09T04:46:42.547Z,3.20
2018-09-09T04:49:11.325Z,3.37
2018-09-09T04:51:40.033Z,3.30
2018-09-09T04:54:08.809Z,3.70
2018-09-09T04:56:37.539Z,3.58
2018-09-09T04:59:06.300Z,3.17
2018-09-09T05:01:34.956Z,4.10
2018-09-09T05:04:03.663Z,3.30
2018-09-09T05:06:32.405Z,3.67
2018-09-09T05:09:01.123Z,3.87
2018-09-09T05:11:29.842Z,4.65
2018-09-09T05:13:58.577Z,3.40
2018-09-09T05:16:27.279Z,3.70
2018-09-09T05:18:56.046Z,3.52
2018-09-09T05:21:24.696Z,4.47
2018-09-09T05:23:53.428Z,3.65
2018-09-09T05:26:22.116Z,4.35
2018-09-09T05:28:50.894Z,4.33
2018-09-09T05:31:19.585Z,3.52
2018-09-09T05:33:48.363Z,4.17
2018-09-09T05:36:17.080Z,4.00
2018-09-09T05:38:45.866Z,4.03
2018-09-09T05:41:14.633Z,3.65
2018-09-09T05:43:43.392Z,4.03
2018-09-09T05:46:12.183Z,4.70
2018-09-09T05:48:40.894Z,3.77
2018-09-09T05:51:09.800Z,4.00
2018-09-09T05:53:38.522Z,4.12
2018-09-09T05:56:07.328Z,3.95
2018-09-09T05:58:36.081Z,4.67
2018-09-09T06:01:04.898Z,4.47
2018-09-09T06:03:33.625Z,4.55
2018-09-09T06:06:02.352Z,4.70
2018-09-09T06:08:31.089Z,4.08
2018-09-09T06:10:59.921Z,3.90
2018-09-09T06:13:28.611Z,4.60
2018-09-09T06:15:57.277Z,4.67
2018-09-09T06:18:25.997Z,4.22
2018-09-09T06:20:54.677Z,4.30
2018-09-09T06:23:23.416Z,5.05
2018-09-09T06:25:52.146Z,5.10
2018-09-09T06:28:20.961Z,4.80
2018-09-09T06:30:49.794Z,5.37
2018-09-09T06:33:18.493Z,4.65
2018-09-09T06:35:47.232Z,4.70
2018-09-09T06:38:15.926Z,5.10
2018-09-09T06:40:44.757Z,5.97
2018-09-09T06:43:13.546Z,6.15
2018-09-09T06:45:42.256Z,5.40
2018-09-09T06:48:10.961Z,5.55
2018-09-09T06:50:39.688Z,4.87
2018-09-09T06:53:08.448Z,5.30
2018-09-09T06:55:37.213Z,5.75
2018-09-09T06:58:06.443Z,5.62
2018-09-09T07:00:35.214Z,6.20
2018-09-09T07:03:03.990Z,5.50
2018-09-09T07:05:32.818Z,5.75
2018-09-09T07:08:01.586Z,5.80
2018-09-09T07:10:30.345Z,6.60
2018-09-09T07:12:59.102Z,5.80
2018-09-09T07:15:27.843Z,5.75
2018-09-09T07:17:56.554Z,5.85
2018-09-09T07:20:25.362Z,6.00
2018-09-09T07:22:54.397Z,5.65
2018-09-09T07:25:23.205Z,6.92
2018-09-09T07:27:51.945Z,6.90
2018-09-09T07:30:20.719Z,5.78
2018-09-09T07:32:49.412Z,6.58
2018-09-09T07:35:18.150Z,6.65
2018-09-09T07:37:46.868Z,6.40
2018-09-09T07:40:15.645Z,6.67
2018-09-09T07:42:44.348Z,5.45
2018-09-09T07:45:13.062Z,5.55
2018-09-09T07:47:41.796Z,6.65
2018-09-09T07:50:10.575Z,7.58
2018-09-09T07:52:39.337Z,7.15
2018-09-09T07:55:08.088Z,6.20
2018-09-09T07:57:36.886Z,6.25
2018-09-09T08:00:06.177Z,7.05
2018-09-09T08:02:34.899Z,5.65
2018-09-09T08:05:03.679Z,6.30
2018-09-09T08:07:32.407Z,5.97
2018-09-09T08:10:01.128Z,6.20
2018-09-09T08:12:29.900Z,6.60
2018-09-09T08:14:58.676Z,6.97
2018-09-09T08:17:27.415Z,6.40
2018-09-09T08:19:56.169Z,6.90
2018-09-09T08:22:24.923Z,5.40
2018-09-09T08:24:53.671Z,5.30
2018-09-09T08:27:22.376Z,5.40
2018-09-09T08:29:51.164Z,6.13
2018-09-09T08:32:19.948Z,6.30
2018-09-09T08:34:48.761Z,5.83
2018-09-09T08:37:17.466Z,4.17
2018-09-09T08:39:46.241Z,4.63
2018-09-09T08:42:14.964Z,5.40
2018-09-09T08:44:43.705Z,5.10
2018-09-09T08:47:12.489Z,4.97
2018-09-09T08:49:41.198Z,5.27
2018-09-09T08:52:09.973Z,6.40
2018-09-09T08:54:38.758Z,5.70
2018-09-09T08:57:07.543Z,5.23
2018-09-09T08:59:36.406Z,4.30
2018-09-09T09:02:05.354Z,5.10
2018-09-09T09:04:34.143Z,4.90
2018-09-09T09:07:02.933Z,4.97
2018-09-09T09:09:31.677Z,4.70
2018-09-09T09:12:04.582Z,4.30
2018-09-09T09:14:33.281Z,4.50
2018-09-09T09:17:02.084Z,4.30
2018-09-09T09:19:30.834Z,4.30
2018-09-09T09:21:59.647Z,4.33
2018-09-09T09:24:28.525Z,4.50
2018-09-09T09:26:57.401Z,4.10
2018-09-09T09:29:30.313Z,3.90
2018-09-09T09:31:59.120Z,4.03
2018-09-09T09:34:28.038Z,4.60
2018-09-09T09:36:57.205Z,4.37
2018-09-09T09:39:26.071Z,4.10
2018-09-09T09:41:54.824Z,4.00
2018-09-09T09:44:23.747Z,4.23
2018-09-09T09:46:52.435Z,3.63
2018-09-09T09:49:21.189Z,3.53
2018-09-09T09:51:49.997Z,3.90
2018-09-09T09:54:18.641Z,4.03
2018-09-09T09:56:47.344Z,3.93
2018-09-09T09:59:16.157Z,3.27
2018-09-09T10:01:44.932Z,3.53
2018-09-09T10:04:13.617Z,3.70
2018-09-09T10:06:42.343Z,3.30
2018-09-09T10:09:11.131Z,3.63
2018-09-09T10:11:39.864Z,3.33
2018-09-09T10:14:08.585Z,2.80
2018-09-09T10:16:37.345Z,3.20
2018-09-09T10:19:06.421Z,2.80
2018-09-09T10:21:35.238Z,2.90
2018-09-09T10:24:05.412Z,3.33
2018-09-09T10:26:34.085Z,2.73
2018-09-09T10:29:02.886Z,3.10
2018-09-09T10:31:31.602Z,2.93
2018-09-09T10:34:00.373Z,3.10
2018-09-09T10:36:29.139Z,3.40
2018-09-09T10:38:57.839Z,3.10
2018-09-09T10:41:26.574Z,3.03
2018-09-09T10:43:55.300Z,2.40
2018-09-09T10:46:24.191Z,2.60
2018-09-09T10:48:52.881Z,2.80
2018-09-09T10:51:21.596Z,2.80
2018-09-09T10:53:50.311Z,2.73
2018-09-09T10:56:18.993Z,2.70
2018-09-09T10:58:47.834Z,2.70
2018-09-09T11:01:16.548Z,3.13
2018-09-09T11:03:45.250Z,2.53
2018-09-09T11:06:14.003Z,2.70
2018-09-09T11:08:42.717Z,2.23
2018-09-09T11:11:11.514Z,2.40
2018-09-09T11:13:40.221Z,2.13
2018-09-09T11:16:09.090Z,2.40
2018-09-09T11:18:37.798Z,3.00
2018-09-09T11:21:06.529Z,3.03
2018-09-09T11:23:35.314Z,2.93
2018-09-09T11:26:04.115Z,2.93
2018-09-09T11:28:32.849Z,2.53
2018-09-09T11:31:01.691Z,2.27
2018-09-09T11:33:30.433Z,2.27
2018-09-09T11:35:59.078Z,2.07
2018-09-09T11:38:27.814Z,2.23
2018-09-09T11:40:56.704Z,2.20
2018-09-09T11:43:25.481Z,2.13
2018-09-09T11:45:54.197Z,2.30
2018-09-09T11:48:22.958Z,2.70
2018-09-09T11:50:51.804Z,3.13
2018-09-09T11:53:20.567Z,2.37
2018-09-09T11:55:49.309Z,2.20
2018-09-09T11:58:18.082Z,2.63
2018-09-09T12:00:46.876Z,2.70
2018-09-09T12:03:15.713Z,2.07
2018-09-09T12:05:44.354Z,2.20
2018-09-09T12:08:13.156Z,2.40
2018-09-09T12:10:41.881Z,2.50
2018-09-09T12:13:10.624Z,2.40
2018-09-09T12:15:39.389Z,2.00
2018-09-09T12:18:08.185Z,2.30
2018-09-09T12:20:36.899Z,2.00
2018-09-09T12:23:05.645Z,2.20
2018-09-09T12:25:34.391Z,2.73
2018-09-09T12:28:03.050Z,2.37
2018-09-09T12:30:31.735Z,2.37
2018-09-09T12:33:00.471Z,2.40
2018-09-09T12:35:29.178Z,2.17
2018-09-09T12:37:57.912Z,2.50
2018-09-09T12:40:26.656Z,2.23
2018-09-09T12:43:00.621Z,2.33
2018-09-09T12:45:34.686Z,2.20
2018-09-09T12:48:08.696Z,2.40
2018-09-09T12:50:37.489Z,2.33
2018-09-09T12:53:06.187Z,2.47
2018-09-09T12:55:34.919Z,2.10
2018-09-09T12:58:03.778Z,2.60
2018-09-09T13:00:33.424Z,3.20
2018-09-09T13:03:02.183Z,2.30
2018-09-09T13:05:30.869Z,2.27
2018-09-09T13:07:59.575Z,3.00
2018-09-09T13:10:28.274Z,1.97
2018-09-09T13:13:02.387Z,2.30
2018-09-09T13:15:31.100Z,2.40
2018-09-09T13:17:59.976Z,2.10
2018-09-09T13:20:28.742Z,1.77
2018-09-09T13:22:57.473Z,2.00
2018-09-09T13:25:26.179Z,1.77
2018-09-09T13:27:54.945Z,2.30
2018-09-09T13:30:23.686Z,2.07
2018-09-09T13:32:52.405Z,2.50
2018-09-09T13:35:21.368Z,2.30
2018-09-09T13:37:50.098Z,2.03
2018-09-09T13:40:18.875Z,1.60
2018-09-09T13:42:47.673Z,1.70
2018-09-09T13:45:16.603Z,2.10
2018-09-09T13:47:45.375Z,4.87
2018-09-09T13:50:14.310Z,1.93
2018-09-09T13:52:43.202Z,2.10
2018-09-09T13:55:11.980Z,1.73
2018-09-09T13:57:40.674Z,2.03
2018-09-09T14:00:09.524Z,2.27
2018-09-09T14:02:38.217Z,1.70
2018-09-09T14:05:06.987Z,1.47
2018-09-09T14:07:35.734Z,1.70
2018-09-09T14:10:04.498Z,1.80
2018-09-09T14:12:33.185Z,1.80
2018-09-09T14:15:01.885Z,1.90
2018-09-09T14:17:30.610Z,1.70
2018-09-09T14:19:59.303Z,1.80
2018-09-09T14:22:28.207Z,1.87
2018-09-09T14:24:57.300Z,1.80
2018-09-09T14:27:26.093Z,2.07
2018-09-09T14:29:54.890Z,1.97
2018-09-09T14:32:23.599Z,1.40
2018-09-09T14:34:52.335Z,2.43
2018-09-09T14:37:21.075Z,2.40
2018-09-09T14:39:49.769Z,1.63
2018-09-09T14:42:18.593Z,2.03
2018-09-09T14:44:47.356Z,1.77
2018-09-09T14:47:16.136Z,2.10
2018-09-09T14:49:44.897Z,1.70
2018-09-09T14:52:13.686Z,1.40
2018-09-09T14:54:42.501Z,2.10
2018-09-09T14:57:11.253Z,1.70
2018-09-09T14:59:40.055Z,1.90
2018-09-09T15:02:08.833Z,1.60
2018-09-09T15:04:37.593Z,1.80
2018-09-09T15:07:06.418Z,1.57
2018-09-09T15:09:35.193Z,2.13
2018-09-09T15:12:03.942Z,1.93
2018-09-09T15:14:32.677Z,1.73
2018-09-09T15:17:01.470Z,1.70
2018-09-09T15:19:30.222Z,1.83
2018-09-09T15:21:58.993Z,1.93
2018-09-09T15:24:27.808Z,1.83
2018-09-09T15:26:56.593Z,1.57
2018-09-09T15:29:25.361Z,1.93
2018-09-09T15:31:54.062Z,2.00
2018-09-09T15:34:22.831Z,1.70
2018-09-09T15:36:51.467Z,1.83
2018-09-09T15:39:20.245Z,1.70
2018-09-09T15:41:49.050Z,2.17
2018-09-09T15:44:17.849Z,1.83
2018-09-09T15:46:46.631Z,1.43
2018-09-09T15:49:15.325Z,2.10
2018-09-09T15:51:44.143Z,1.70
2018-09-09T15:54:12.902Z,2.10
2018-09-09T15:56:41.650Z,1.50
2018-09-09T15:59:10.438Z,2.00
2018-09-09T16:01:39.329Z,2.00
2018-09-09T16:04:08.032Z,2.13
2018-09-09T16:06:36.733Z,2.13
2018-09-09T16:09:08.068Z,1.90
2018-09-09T16:11:36.949Z,1.90
2018-09-09T16:14:05.949Z,2.20
2018-09-09T16:16:34.765Z,2.10
2018-09-09T16:19:03.628Z,2.50
2018-09-09T16:21:32.388Z,2.07
2018-09-09T16:24:01.136Z,2.10
2018-09-09T16:26:29.955Z,1.70
2018-09-09T16:28:58.652Z,2.00
2018-09-09T16:31:27.372Z,2.10
2018-09-09T16:33:56.238Z,1.87
2018-09-09T16:36:25.029Z,2.10
2018-09-09T16:38:53.777Z,1.90
2018-09-09T16:41:22.498Z,1.50
2018-09-09T16:43:52.197Z,1.93
2018-09-09T16:46:21.072Z,1.87
2018-09-09T16:48:49.948Z,2.33
2018-09-09T16:51:18.705Z,2.30
2018-09-09T16:53:50.572Z,2.23
2018-09-09T16:56:19.642Z,2.53
2018-09-09T16:58:48.342Z,6.90
2018-09-09T17:01:17.158Z,10.73
2018-09-09T17:03:45.870Z,2.80
2018-09-09T17:06:14.621Z,2.87
2018-09-09T17:08:43.410Z,2.40
2018-09-09T17:11:12.116Z,2.20
2018-09-09T17:13:40.945Z,1.80
2018-09-09T17:16:09.686Z,2.40
2018-09-09T17:18:38.432Z,2.50
2018-09-09T17:21:07.241Z,2.10
2018-09-09T17:23:35.983Z,3.10
2018-09-09T17:26:04.747Z,1.93
2018-09-09T17:28:33.487Z,2.40
2018-09-09T17:31:02.218Z,3.00
2018-09-09T17:33:30.958Z,2.90
2018-09-09T17:35:59.750Z,3.20
2018-09-09T17:38:28.485Z,3.37
2018-09-09T17:40:57.201Z,3.83
2018-09-09T17:43:25.979Z,3.03
2018-09-09T17:45:54.825Z,3.00
2018-09-09T17:48:23.625Z,3.20
2018-09-09T17:50:52.346Z,3.50
2018-09-09T17:53:21.133Z,2.80
2018-09-09T17:55:49.892Z,3.00
2018-09-09T17:58:18.604Z,3.30
2018-09-09T18:00:50.601Z,3.40
2018-09-09T18:03:19.361Z,2.80
2018-09-09T18:05:48.085Z,3.00
2018-09-09T18:08:16.802Z,2.80
2018-09-09T18:10:45.509Z,5.03
2018-09-09T18:13:14.250Z,4.60
2018-09-09T18:15:42.974Z,4.10
2018-09-09T18:18:12.048Z,4.27
2018-09-09T18:20:40.797Z,4.60
2018-09-09T18:23:09.566Z,4.43
2018-09-09T18:25:38.338Z,3.80
2018-09-09T18:28:07.080Z,4.73
2018-09-09T18:30:35.847Z,4.50
2018-09-09T18:33:04.562Z,4.50
2018-09-09T18:35:33.257Z,4.80
2018-09-09T18:38:02.085Z,4.30
2018-09-09T18:40:30.818Z,4.30
2018-09-09T18:42:59.618Z,4.00
2018-09-09T18:45:28.395Z,4.60
2018-09-09T18:47:57.122Z,4.27
2018-09-09T18:50:25.901Z,4.33
2018-09-09T18:52:54.606Z,4.57
2018-09-09T18:55:23.460Z,3.73
2018-09-09T18:57:52.334Z,3.60
2018-09-09T19:00:21.054Z,3.20
2018-09-09T19:02:49.853Z,3.50
2018-09-09T19:05:18.593Z,3.67
2018-09-09T19:07:47.394Z,3.43
2018-09-09T19:10:16.187Z,3.97
2018-09-09T19:12:44.937Z,5.70
2018-09-09T19:15:13.724Z,4.77
2018-09-09T19:17:42.445Z,5.90
2018-09-09T19:20:11.317Z,5.30
2018-09-09T19:22:40.091Z,4.60
2018-09-09T19:25:09.015Z,3.30
2018-09-09T19:27:37.729Z,3.83
2018-09-09T19:30:06.584Z,3.60
2018-09-09T19:32:35.301Z,3.60
2018-09-09T19:35:04.082Z,3.30
2018-09-09T19:37:32.857Z,3.47
2018-09-09T19:40:01.595Z,3.30
2018-09-09T19:42:33.762Z,3.70
2018-09-09T19:45:03.676Z,3.43
2018-09-09T19:47:32.510Z,3.20
2018-09-09T19:50:01.923Z,3.00
2018-09-09T19:52:30.606Z,3.90
2018-09-09T19:54:59.473Z,2.67
2018-09-09T19:57:28.233Z,3.60
2018-09-09T19:59:56.965Z,2.67
2018-09-09T20:02:29.853Z,2.80
2018-09-09T20:05:03.043Z,3.40
2018-09-09T20:07:31.802Z,3.60
2018-09-09T20:10:00.562Z,3.70
2018-09-09T20:12:29.263Z,3.33
2018-09-09T20:14:58.068Z,3.80
2018-09-09T20:17:26.855Z,2.90
2018-09-09T20:19:55.622Z,3.10
2018-09-09T20:22:24.395Z,3.27
2018-09-09T20:24:53.175Z,2.90
2018-09-09T20:27:21.924Z,3.30
2018-09-09T20:29:50.661Z,2.90
2018-09-09T20:32:19.450Z,3.97
2018-09-09T20:34:48.190Z,3.07
2018-09-09T20:37:16.916Z,3.10
2018-09-09T20:39:45.695Z,3.47
2018-09-09T20:42:14.409Z,3.30
2018-09-09T20:44:43.155Z,2.60
2018-09-09T20:47:12.028Z,3.40
2018-09-09T20:49:40.894Z,3.47
2018-09-09T20:52:09.661Z,3.87
2018-09-09T20:54:38.348Z,3.83
2018-09-09T20:57:07.199Z,3.37
2018-09-09T20:59:35.923Z,3.02
2018-09-09T21:02:04.740Z,3.17
2018-09-09T21:04:33.636Z,3.22
2018-09-09T21:07:02.461Z,3.83
2018-09-09T21:09:31.219Z,3.20
2018-09-09T21:12:00.042Z,3.03
2018-09-09T21:14:28.854Z,3.00
2018-09-09T21:16:57.671Z,3.37
2018-09-09T21:19:26.471Z,3.17
2018-09-09T21:21:55.317Z,3.90
2018-09-09T21:24:24.030Z,2.90
2018-09-09T21:26:52.765Z,3.75
2018-09-09T21:29:21.469Z,3.70
2018-09-09T21:31:50.269Z,3.60
2018-09-09T21:34:18.981Z,3.30
2018-09-09T21:36:47.746Z,4.05
2018-09-09T21:39:16.505Z,3.22
2018-09-09T21:41:45.778Z,4.10
2018-09-09T21:44:14.492Z,3.35
2018-09-09T21:46:43.271Z,3.15
2018-09-09T21:49:12.068Z,3.47
2018-09-09T21:51:40.821Z,4.08
2018-09-09T21:54:09.551Z,3.67
2018-09-09T21:56:38.304Z,3.52
2018-09-09T21:59:07.008Z,3.52
2018-09-09T22:01:40.963Z,2.87
2018-09-09T22:04:09.759Z,3.15
2018-09-09T22:06:38.504Z,3.22
2018-09-09T22:09:09.135Z,2.42
2018-09-09T22:11:38.629Z,2.90
2018-09-09T22:14:07.513Z,2.67
2018-09-09T22:16:36.292Z,3.00
2018-09-09T22:19:05.066Z,3.25
2018-09-09T22:21:33.849Z,3.75
2018-09-09T22:24:02.720Z,4.05
2018-09-09T22:26:31.548Z,3.80
2018-09-09T22:29:00.312Z,3.70
2018-09-09T22:31:29.079Z,3.67
2018-09-09T22:33:57.884Z,3.42
2018-09-09T22:36:26.653Z,3.40
2018-09-09T22:38:55.381Z,3.50
2018-09-09T22:41:24.143Z,3.35
2018-09-09T22:43:53.225Z,3.58
2018-09-09T22:46:21.912Z,3.35
2018-09-09T22:48:50.753Z,3.70
2018-09-09T22:51:19.548Z,4.22
2018-09-09T22:53:48.302Z,3.75
2018-09-09T22:56:17.173Z,3.67
2018-09-09T22:58:45.913Z,3.20
2018-09-09T23:01:14.638Z,2.62
2018-09-09T23:03:43.452Z,2.98
2018-09-09T23:06:12.193Z,2.90
2018-09-09T23:08:41.099Z,3.33
2018-09-09T23:11:09.824Z,3.12
2018-09-09T23:13:38.714Z,2.70
2018-09-09T23:16:07.453Z,2.95
2018-09-09T23:18:39.221Z,3.25
2018-09-09T23:21:07.990Z,4.83
2018-09-09T23:23:36.731Z,2.70
2018-09-09T23:26:05.527Z,6.60
2018-09-09T23:28:34.357Z,2.95
2018-09-09T23:31:03.039Z,2.95
2018-09-09T23:33:31.738Z,3.05
2018-09-09T23:36:00.428Z,3.10
2018-09-09T23:38:29.179Z,3.27
2018-09-09T23:40:57.919Z,3.20
2018-09-09T23:43:26.652Z,2.62
2018-09-09T23:45:55.365Z,3.10
2018-09-09T23:48:24.051Z,2.77
2018-09-09T23:50:52.770Z,3.02
2018-09-09T23:53:21.451Z,2.72
2018-09-09T23:55:50.224Z,2.80
2018-09-09T23:58:18.973Z,2.92
